sensor_id;sensor_type;location;lat;lon;timestamp;pressure;altitude;pressure_sealevel;temperature;humidity
50384;BME280;36301;48.310;12.786;2023-01-01T04:00:32;96788.88;;;2.62;100.00
50384;BME280;36301;48.310;12.786;2023-01-01T04:03:03;96790.72;;;2.62;100.00
50384;BME280;36301;48.310;12.786;2023-01-01T04:05:37;96789.38;;;2.64;100.00
50384;BME280;36301;48.310;12.786;2023-01-01T04:08:05;96798.88;;;2.60;100.00
50384;BME280;36301;48.310;12.786;2023-01-01T04:10:34;96790.63;;;2.53;100.00
50384;BME280;36301;48.310;12.786;2023-01-01T04:13:04;96807.28;;;2.57;100.00
50384;BME280;36301;48.310;12.786;2023-01-01T04:15:32;96806.50;;;2.56;100.00
50384;BME280;36301;48.310;12.786;2023-01-01T04:17:58;96808.75;;;2.49;100.00
50384;BME280;36301;48.310;12.786;2023-01-01T04:20:25;96815.63;;;2.45;100.00
50384;BME280;36301;48.310;12.786;2023-01-01T04:22:55;96815.13;;;2.43;100.00
50384;BME280;36301;48.310;12.786;2023-01-01T04:25:22;96822.38;;;2.46;100.00
50384;BME280;36301;48.310;12.786;2023-01-01T04:27:48;96822.00;;;2.53;100.00
50384;BME280;36301;48.310;12.786;2023-01-01T04:30:15;96821.69;;;2.68;100.00
50384;BME280;36301;48.310;12.786;2023-01-01T04:32:42;96822.47;;;2.69;100.00
50384;BME280;36301;48.310;12.786;2023-01-01T04:35:10;96817.63;;;2.62;100.00
50384;BME280;36301;48.310;12.786;2023-01-01T04:37:41;96822.75;;;2.67;100.00
50384;BME280;36301;48.310;12.786;2023-01-01T04:40:09;96826.91;;;2.68;100.00
50384;BME280;36301;48.310;12.786;2023-01-01T04:42:36;96827.81;;;2.50;100.00
50384;BME280;36301;48.310;12.786;2023-01-01T04:45:04;96827.81;;;2.36;100.00
50384;BME280;36301;48.310;12.786;2023-01-01T04:47:30;96829.84;;;2.25;100.00
50384;BME280;36301;48.310;12.786;2023-01-01T04:49:57;96834.59;;;2.23;100.00
50384;BME280;36301;48.310;12.786;2023-01-01T04:52:23;96840.78;;;2.27;100.00
50384;BME280;36301;48.310;12.786;2023-01-01T04:54:50;96854.59;;;2.28;100.00
50384;BME280;36301;48.310;12.786;2023-01-01T04:57:16;96857.91;;;2.20;100.00
50384;BME280;36301;48.310;12.786;2023-01-01T04:59:43;96851.31;;;2.08;100.00
50384;BME280;36301;48.310;12.786;2023-01-01T05:02:09;96836.22;;;2.05;100.00
50384;BME280;36301;48.310;12.786;2023-01-01T05:04:36;96839.91;;;2.32;100.00
50384;BME280;36301;48.310;12.786;2023-01-01T05:07:02;96843.78;;;2.34;100.00
50384;BME280;36301;48.310;12.786;2023-01-01T05:09:29;96834.78;;;2.27;100.00
50384;BME280;36301;48.310;12.786;2023-01-01T05:11:55;96836.91;;;2.25;100.00
50384;BME280;36301;48.310;12.786;2023-01-01T05:14:22;96841.47;;;2.19;100.00
50384;BME280;36301;48.310;12.786;2023-01-01T05:16:48;96843.47;;;2.22;100.00
50384;BME280;36301;48.310;12.786;2023-01-01T05:19:15;96846.97;;;2.18;100.00
50384;BME280;36301;48.310;12.786;2023-01-01T05:21:41;96834.28;;;2.11;100.00
50384;BME280;36301;48.310;12.786;2023-01-01T05:24:08;96842.41;;;2.10;100.00
50384;BME280;36301;48.310;12.786;2023-01-01T05:26:39;96860.50;;;2.06;100.00
50384;BME280;36301;48.310;12.786;2023-01-01T05:29:06;96865.25;;;2.04;100.00
50384;BME280;36301;48.310;12.786;2023-01-01T05:31:41;96863.88;;;2.06;100.00
50384;BME280;36301;48.310;12.786;2023-01-01T05:34:07;96861.25;;;2.06;100.00
50384;BME280;36301;48.310;12.786;2023-01-01T05:36:35;96855.34;;;2.01;100.00
50384;BME280;36301;48.310;12.786;2023-01-01T05:39:05;96857.50;;;1.99;100.00
50384;BME280;36301;48.310;12.786;2023-01-01T05:41:33;96859.44;;;2.07;100.00
50384;BME280;36301;48.310;12.786;2023-01-01T05:44:04;96858.28;;;1.99;100.00
50384;BME280;36301;48.310;12.786;2023-01-01T05:46:32;96854.97;;;1.94;100.00
50384;BME280;36301;48.310;12.786;2023-01-01T05:48:59;96861.44;;;1.96;100.00
50384;BME280;36301;48.310;12.786;2023-01-01T05:51:27;96857.69;;;2.02;100.00
50384;BME280;36301;48.310;12.786;2023-01-01T05:53:54;96862.72;;;1.99;100.00
50384;BME280;36301;48.310;12.786;2023-01-01T05:56:21;96868.22;;;1.97;100.00
50384;BME280;36301;48.310;12.786;2023-01-01T05:58:48;96862.88;;;1.89;100.00
50384;BME280;36301;48.310;12.786;2023-01-01T06:01:23;96862.88;;;1.89;100.00
50384;BME280;36301;48.310;12.786;2023-01-01T06:03:51;96864.72;;;1.88;100.00
50384;BME280;36301;48.310;12.786;2023-01-01T06:06:21;96860.38;;;1.84;100.00
50384;BME280;36301;48.310;12.786;2023-01-01T06:08:52;96864.59;;;1.79;100.00
50384;BME280;36301;48.310;12.786;2023-01-01T06:11:19;96863.53;;;1.80;100.00
50384;BME280;36301;48.310;12.786;2023-01-01T06:13:46;96865.66;;;1.78;100.00
50384;BME280;36301;48.310;12.786;2023-01-01T06:16:13;96871.16;;;1.77;100.00
50384;BME280;36301;48.310;12.786;2023-01-01T06:18:40;96871.16;;;1.77;100.00
50384;BME280;36301;48.310;12.786;2023-01-01T06:21:12;96872.31;;;1.71;100.00
50384;BME280;36301;48.310;12.786;2023-01-01T06:23:39;96869.91;;;1.74;100.00
50384;BME280;36301;48.310;12.786;2023-01-01T06:26:10;96867.38;;;1.69;100.00
50384;BME280;36301;48.310;12.786;2023-01-01T06:28:37;96853.06;;;1.67;100.00
50384;BME280;36301;48.310;12.786;2023-01-01T06:31:06;96864.19;;;1.72;100.00
50384;BME280;36301;48.310;12.786;2023-01-01T06:33:34;96864.47;;;1.71;100.00
50384;BME280;36301;48.310;12.786;2023-01-01T06:36:02;96861.50;;;1.77;100.00
50384;BME280;36301;48.310;12.786;2023-01-01T06:38:30;96865.47;;;1.75;100.00
50384;BME280;36301;48.310;12.786;2023-01-01T06:41:01;96871.75;;;1.74;100.00
50384;BME280;36301;48.310;12.786;2023-01-01T06:43:30;96882.09;;;1.79;100.00
50384;BME280;36301;48.310;12.786;2023-01-01T06:46:04;96885.44;;;1.66;100.00
50384;BME280;36301;48.310;12.786;2023-01-01T06:48:33;96906.25;;;1.71;100.00
50384;BME280;36301;48.310;12.786;2023-01-01T06:51:08;96892.72;;;1.69;100.00
50384;BME280;36301;48.310;12.786;2023-01-01T06:53:35;96897.41;;;1.67;100.00
50384;BME280;36301;48.310;12.786;2023-01-01T06:56:02;96899.56;;;1.65;100.00
50384;BME280;36301;48.310;12.786;2023-01-01T06:58:29;96896.38;;;1.68;100.00
50384;BME280;36301;48.310;12.786;2023-01-01T07:01:04;96903.06;;;1.74;100.00
50384;BME280;36301;48.310;12.786;2023-01-01T07:03:34;96915.13;;;1.70;100.00
50384;BME280;36301;48.310;12.786;2023-01-01T07:06:01;96910.97;;;1.69;100.00
50384;BME280;36301;48.310;12.786;2023-01-01T07:08:28;96911.38;;;1.76;100.00
50384;BME280;36301;48.310;12.786;2023-01-01T07:10:54;96908.78;;;1.76;100.00
50384;BME280;36301;48.310;12.786;2023-01-01T07:13:23;96911.97;;;1.73;100.00
50384;BME280;36301;48.310;12.786;2023-01-01T07:15:50;96915.47;;;1.82;100.00
50384;BME280;36301;48.310;12.786;2023-01-01T07:18:18;96927.41;;;1.88;100.00
50384;BME280;36301;48.310;12.786;2023-01-01T07:21:04;96923.22;;;1.87;100.00
50384;BME280;36301;48.310;12.786;2023-01-01T07:23:33;96926.63;;;1.88;100.00
50384;BME280;36301;48.310;12.786;2023-01-01T07:26:00;96931.03;;;1.87;100.00
50384;BME280;36301;48.310;12.786;2023-01-01T07:28:26;96921.31;;;1.93;100.00
50384;BME280;36301;48.310;12.786;2023-01-01T07:30:53;96934.94;;;2.36;100.00
50384;BME280;36301;48.310;12.786;2023-01-01T07:33:22;96933.53;;;2.44;100.00
50384;BME280;36301;48.310;12.786;2023-01-01T07:35:49;96935.56;;;2.60;100.00
50384;BME280;36301;48.310;12.786;2023-01-01T07:38:16;96951.84;;;2.71;100.00
50384;BME280;36301;48.310;12.786;2023-01-01T07:40:42;96942.44;;;2.70;100.00
50384;BME280;36301;48.310;12.786;2023-01-01T07:43:09;96947.28;;;2.91;100.00
50384;BME280;36301;48.310;12.786;2023-01-01T07:45:35;96947.28;;;3.04;100.00
50384;BME280;36301;48.310;12.786;2023-01-01T07:48:02;96946.47;;;3.18;100.00
50384;BME280;36301;48.310;12.786;2023-01-01T07:50:30;96942.19;;;3.72;100.00
50384;BME280;36301;48.310;12.786;2023-01-01T07:52:58;96940.59;;;4.38;100.00
50384;BME280;36301;48.310;12.786;2023-01-01T07:55:24;96951.66;;;4.97;100.00
50384;BME280;36301;48.310;12.786;2023-01-01T07:57:51;96954.38;;;5.49;100.00
50384;BME280;36301;48.310;12.786;2023-01-01T08:00:19;96946.66;;;6.05;100.00
50384;BME280;36301;48.310;12.786;2023-01-01T08:02:46;96950.09;;;6.61;100.00
50384;BME280;36301;48.310;12.786;2023-01-01T08:05:13;96948.63;;;7.10;100.00
50384;BME280;36301;48.310;12.786;2023-01-01T08:07:39;96960.63;;;7.70;100.00
50384;BME280;36301;48.310;12.786;2023-01-01T08:10:10;96956.75;;;8.10;98.55
50384;BME280;36301;48.310;12.786;2023-01-01T08:12:36;96964.56;;;8.51;94.02
50384;BME280;36301;48.310;12.786;2023-01-01T08:15:03;96965.78;;;8.42;92.79
50384;BME280;36301;48.310;12.786;2023-01-01T08:17:30;96966.56;;;8.67;91.11
50384;BME280;36301;48.310;12.786;2023-01-01T08:19:56;96966.31;;;8.93;87.49
50384;BME280;36301;48.310;12.786;2023-01-01T08:22:23;96959.59;;;9.07;88.98
50384;BME280;36301;48.310;12.786;2023-01-01T08:24:49;96961.50;;;9.59;86.08
50384;BME280;36301;48.310;12.786;2023-01-01T08:27:16;96968.63;;;9.71;83.28
50384;BME280;36301;48.310;12.786;2023-01-01T08:29:43;96968.03;;;9.90;83.48
50384;BME280;36301;48.310;12.786;2023-01-01T08:32:13;96965.91;;;9.96;81.95
50384;BME280;36301;48.310;12.786;2023-01-01T08:34:39;96978.59;;;9.90;79.84
50384;BME280;36301;48.310;12.786;2023-01-01T08:37:08;96980.09;;;9.75;78.88
50384;BME280;36301;48.310;12.786;2023-01-01T08:39:36;96978.91;;;10.01;82.05
50384;BME280;36301;48.310;12.786;2023-01-01T08:42:03;96983.72;;;10.11;81.68
50384;BME280;36301;48.310;12.786;2023-01-01T08:44:37;96981.81;;;10.24;81.75
50384;BME280;36301;48.310;12.786;2023-01-01T08:47:03;96973.81;;;10.36;80.82
50384;BME280;36301;48.310;12.786;2023-01-01T08:49:30;96984.00;;;10.50;82.31
50384;BME280;36301;48.310;12.786;2023-01-01T08:51:56;96993.84;;;10.65;78.52
50384;BME280;36301;48.310;12.786;2023-01-01T08:54:23;96985.22;;;10.68;81.29
50384;BME280;36301;48.310;12.786;2023-01-01T08:56:49;96999.16;;;10.65;79.55
50384;BME280;36301;48.310;12.786;2023-01-01T08:59:16;96991.47;;;10.60;77.72
50384;BME280;36301;48.310;12.786;2023-01-01T09:01:42;96983.75;;;10.55;78.19
50384;BME280;36301;48.310;12.786;2023-01-01T09:04:09;96983.69;;;10.67;79.15
50384;BME280;36301;48.310;12.786;2023-01-01T09:06:41;96989.69;;;10.96;80.65
50384;BME280;36301;48.310;12.786;2023-01-01T09:09:07;96991.47;;;10.91;79.75
50384;BME280;36301;48.310;12.786;2023-01-01T09:11:35;96983.78;;;10.86;82.54
50384;BME280;36301;48.310;12.786;2023-01-01T09:14:01;96987.53;;;10.70;79.78
50384;BME280;36301;48.310;12.786;2023-01-01T09:16:28;96993.59;;;11.02;81.74
50384;BME280;36301;48.310;12.786;2023-01-01T09:18:54;96981.00;;;11.30;82.30
50384;BME280;36301;48.310;12.786;2023-01-01T09:21:21;97001.13;;;11.31;79.46
50384;BME280;36301;48.310;12.786;2023-01-01T09:23:47;97002.22;;;11.46;78.74
50384;BME280;36301;48.310;12.786;2023-01-01T09:26:14;97009.06;;;11.31;76.09
50384;BME280;36301;48.310;12.786;2023-01-01T09:28:40;96999.63;;;11.34;78.07
50384;BME280;36301;48.310;12.786;2023-01-01T09:31:07;97004.59;;;11.51;76.92
50384;BME280;36301;48.310;12.786;2023-01-01T09:33:34;97000.47;;;11.54;77.69
50384;BME280;36301;48.310;12.786;2023-01-01T09:36:12;97005.66;;;11.31;75.24
50384;BME280;36301;48.310;12.786;2023-01-01T09:38:39;96995.47;;;11.17;74.83
50384;BME280;36301;48.310;12.786;2023-01-01T09:44:40;97010.75;;;11.39;74.71
50384;BME280;36301;48.310;12.786;2023-01-01T09:47:20;97011.53;;;11.24;73.21
50384;BME280;36301;48.310;12.786;2023-01-01T09:49:48;97003.59;;;10.77;73.83
50384;BME280;36301;48.310;12.786;2023-01-01T09:52:17;97003.25;;;10.78;74.67
50384;BME280;36301;48.310;12.786;2023-01-01T09:54:54;97009.91;;;10.56;75.16
50384;BME280;36301;48.310;12.786;2023-01-01T09:57:28;97001.06;;;10.36;76.80
50384;BME280;36301;48.310;12.786;2023-01-01T09:59:58;96997.06;;;10.43;75.56
50384;BME280;36301;48.310;12.786;2023-01-01T10:03:00;97003.97;;;10.47;78.17
50384;BME280;36301;48.310;12.786;2023-01-01T10:13:43;96988.31;;;10.86;74.62
50384;BME280;36301;48.310;12.786;2023-01-01T10:16:26;96997.28;;;10.81;74.81
50384;BME280;36301;48.310;12.786;2023-01-01T10:18:58;96994.28;;;10.67;75.48
50384;BME280;36301;48.310;12.786;2023-01-01T10:21:37;96983.00;;;10.54;74.01
50384;BME280;36301;48.310;12.786;2023-01-01T10:26:54;97003.34;;;10.66;76.61
50384;BME280;36301;48.310;12.786;2023-01-01T10:29:47;97000.81;;;10.42;76.33
50384;BME280;36301;48.310;12.786;2023-01-01T10:32:18;96997.00;;;10.55;75.87
50384;BME280;36301;48.310;12.786;2023-01-01T10:34:46;96995.66;;;10.77;72.06
50384;BME280;36301;48.310;12.786;2023-01-01T10:37:13;96996.84;;;10.79;71.40
50384;BME280;36301;48.310;12.786;2023-01-01T10:39:41;96991.88;;;10.78;73.13
50384;BME280;36301;48.310;12.786;2023-01-01T10:42:11;96996.00;;;10.75;74.73
50384;BME280;36301;48.310;12.786;2023-01-01T10:44:39;96989.13;;;10.58;76.02
50384;BME280;36301;48.310;12.786;2023-01-01T10:47:24;96988.19;;;10.51;77.46
50384;BME280;36301;48.310;12.786;2023-01-01T10:49:55;96988.00;;;10.44;77.61
50384;BME280;36301;48.310;12.786;2023-01-01T10:52:45;96984.50;;;10.39;79.12
50384;BME280;36301;48.310;12.786;2023-01-01T10:55:20;96984.25;;;10.45;78.12
50384;BME280;36301;48.310;12.786;2023-01-01T10:57:48;96973.31;;;10.46;79.86
50384;BME280;36301;48.310;12.786;2023-01-01T11:00:21;96968.44;;;10.48;80.93
50384;BME280;36301;48.310;12.786;2023-01-01T11:03:19;96960.50;;;10.48;81.07
50384;BME280;36301;48.310;12.786;2023-01-01T11:06:13;96941.06;;;10.56;82.14
50384;BME280;36301;48.310;12.786;2023-01-01T11:08:57;96955.06;;;10.57;83.92
50384;BME280;36301;48.310;12.786;2023-01-01T11:14:03;96949.25;;;10.67;81.75
50384;BME280;36301;48.310;12.786;2023-01-01T11:16:32;96950.38;;;10.66;78.60
50384;BME280;36301;48.310;12.786;2023-01-01T11:19:04;96951.66;;;10.72;80.53
50384;BME280;36301;48.310;12.786;2023-01-01T11:21:32;96946.25;;;10.84;81.06
50384;BME280;36301;48.310;12.786;2023-01-01T11:24:19;96945.16;;;10.85;82.24
50384;BME280;36301;48.310;12.786;2023-01-01T11:26:47;96937.38;;;10.93;79.55
50384;BME280;36301;48.310;12.786;2023-01-01T11:29:27;96941.25;;;11.14;75.70
50384;BME280;36301;48.310;12.786;2023-01-01T11:31:54;96940.31;;;11.23;75.83
50384;BME280;36301;48.310;12.786;2023-01-01T11:34:29;96941.47;;;11.06;75.49
50384;BME280;36301;48.310;12.786;2023-01-01T11:37:31;96935.56;;;10.97;75.33
50384;BME280;36301;48.310;12.786;2023-01-01T11:40:02;96939.41;;;10.83;72.18
50384;BME280;36301;48.310;12.786;2023-01-01T11:42:32;96950.38;;;10.82;72.05
50384;BME280;36301;48.310;12.786;2023-01-01T11:45:21;96937.72;;;10.75;71.81
50384;BME280;36301;48.310;12.786;2023-01-01T11:48:00;96936.97;;;10.75;72.63
50384;BME280;36301;48.310;12.786;2023-01-01T11:50:31;96930.28;;;10.97;70.37
50384;BME280;36301;48.310;12.786;2023-01-01T11:53:18;96926.41;;;10.94;71.52
50384;BME280;36301;48.310;12.786;2023-01-01T11:55:49;96921.38;;;10.89;72.37
50384;BME280;36301;48.310;12.786;2023-01-01T11:58:23;96917.72;;;10.94;73.82
50384;BME280;36301;48.310;12.786;2023-01-01T12:00:58;96919.19;;;10.91;73.93
50384;BME280;36301;48.310;12.786;2023-01-01T12:03:37;96912.59;;;10.85;74.00
50384;BME280;36301;48.310;12.786;2023-01-01T12:06:19;96918.97;;;11.00;73.37
50384;BME280;36301;48.310;12.786;2023-01-01T12:09:05;96909.78;;;11.29;74.98
50384;BME280;36301;48.310;12.786;2023-01-01T12:11:55;96913.63;;;11.31;75.69
50384;BME280;36301;48.310;12.786;2023-01-01T12:17:03;96908.38;;;11.35;77.00
50384;BME280;36301;48.310;12.786;2023-01-01T12:19:42;96905.63;;;11.47;75.70
50384;BME280;36301;48.310;12.786;2023-01-01T12:22:17;96901.03;;;11.63;73.78
50384;BME280;36301;48.310;12.786;2023-01-01T12:24:46;96905.09;;;11.77;73.76
50384;BME280;36301;48.310;12.786;2023-01-01T12:30:09;96907.25;;;11.52;76.02
50384;BME280;36301;48.310;12.786;2023-01-01T12:41:18;96900.38;;;11.31;81.72
50384;BME280;36301;48.310;12.786;2023-01-01T12:46:49;96893.97;;;11.32;81.71
50384;BME280;36301;48.310;12.786;2023-01-01T13:00:18;96893.75;;;11.41;81.26
50384;BME280;36301;48.310;12.786;2023-01-01T13:02:57;96890.88;;;11.30;83.54
50384;BME280;36301;48.310;12.786;2023-01-01T13:05:36;96889.34;;;11.29;82.23
50384;BME280;36301;48.310;12.786;2023-01-01T13:08:04;96883.75;;;11.34;79.83
50384;BME280;36301;48.310;12.786;2023-01-01T13:10:39;96883.06;;;11.37;82.19
50384;BME280;36301;48.310;12.786;2023-01-01T13:13:07;96872.28;;;11.46;80.37
50384;BME280;36301;48.310;12.786;2023-01-01T13:20:35;96876.59;;;11.54;80.18
50384;BME280;36301;48.310;12.786;2023-01-01T13:23:03;96878.00;;;11.48;83.28
50384;BME280;36301;48.310;12.786;2023-01-01T13:25:29;96874.09;;;11.42;83.17
50384;BME280;36301;48.310;12.786;2023-01-01T13:33:23;96885.69;;;11.18;87.35
50384;BME280;36301;48.310;12.786;2023-01-01T13:38:56;96881.75;;;11.47;82.32
50384;BME280;36301;48.310;12.786;2023-01-01T13:49:28;96877.34;;;11.16;85.91
50384;BME280;36301;48.310;12.786;2023-01-01T14:03:36;96885.16;;;10.93;88.10
50384;BME280;36301;48.310;12.786;2023-01-01T14:06:10;96876.16;;;10.98;88.19
50384;BME280;36301;48.310;12.786;2023-01-01T14:08:37;96886.22;;;11.08;88.80
50384;BME280;36301;48.310;12.786;2023-01-01T14:11:23;96883.06;;;11.37;84.53
50384;BME280;36301;48.310;12.786;2023-01-01T14:13:50;96877.69;;;11.34;84.77
50384;BME280;36301;48.310;12.786;2023-01-01T14:16:16;96882.84;;;11.27;85.34
50384;BME280;36301;48.310;12.786;2023-01-01T14:18:48;96880.97;;;11.27;84.08
50384;BME280;36301;48.310;12.786;2023-01-01T14:21:24;96876.56;;;11.15;84.86
50384;BME280;36301;48.310;12.786;2023-01-01T14:23:56;96884.72;;;11.07;86.92
50384;BME280;36301;48.310;12.786;2023-01-01T14:26:26;96878.50;;;10.83;88.98
50384;BME280;36301;48.310;12.786;2023-01-01T14:28:58;96876.06;;;10.75;90.43
50384;BME280;36301;48.310;12.786;2023-01-01T14:31:27;96880.41;;;10.67;91.86
50384;BME280;36301;48.310;12.786;2023-01-01T14:33:55;96879.56;;;10.47;94.63
50384;BME280;36301;48.310;12.786;2023-01-01T14:36:30;96882.03;;;10.24;98.39
50384;BME280;36301;48.310;12.786;2023-01-01T14:38:58;96878.13;;;10.06;100.00
50384;BME280;36301;48.310;12.786;2023-01-01T14:41:38;96887.50;;;10.03;100.00
50384;BME280;36301;48.310;12.786;2023-01-01T14:44:12;96889.06;;;10.20;99.95
50384;BME280;36301;48.310;12.786;2023-01-01T14:46:50;96888.31;;;10.20;100.00
50384;BME280;36301;48.310;12.786;2023-01-01T14:49:26;96898.31;;;9.98;100.00
50384;BME280;36301;48.310;12.786;2023-01-01T14:52:00;96887.44;;;9.72;100.00
50384;BME280;36301;48.310;12.786;2023-01-01T14:54:31;96880.91;;;9.53;100.00
50384;BME280;36301;48.310;12.786;2023-01-01T14:56:59;96888.72;;;9.50;100.00
50384;BME280;36301;48.310;12.786;2023-01-01T14:59:30;96880.56;;;9.43;100.00
50384;BME280;36301;48.310;12.786;2023-01-01T15:01:59;96881.03;;;9.45;100.00
50384;BME280;36301;48.310;12.786;2023-01-01T15:04:28;96888.72;;;9.38;100.00
50384;BME280;36301;48.310;12.786;2023-01-01T15:06:57;96895.63;;;9.14;100.00
50384;BME280;36301;48.310;12.786;2023-01-01T15:09:26;96876.94;;;8.95;100.00
50384;BME280;36301;48.310;12.786;2023-01-01T15:11:53;96883.91;;;9.27;100.00
50384;BME280;36301;48.310;12.786;2023-01-01T15:14:32;96885.72;;;9.23;100.00
50384;BME280;36301;48.310;12.786;2023-01-01T15:17:03;96888.16;;;8.92;100.00
50384;BME280;36301;48.310;12.786;2023-01-01T15:19:30;96884.00;;;8.78;100.00
50384;BME280;36301;48.310;12.786;2023-01-01T15:21:58;96886.63;;;8.91;100.00
50384;BME280;36301;48.310;12.786;2023-01-01T15:24:24;96896.97;;;8.83;100.00
50384;BME280;36301;48.310;12.786;2023-01-01T15:26:56;96888.94;;;8.68;100.00
50384;BME280;36301;48.310;12.786;2023-01-01T15:29:31;96895.19;;;8.51;100.00
50384;BME280;36301;48.310;12.786;2023-01-01T15:32:01;96887.03;;;8.31;100.00
50384;BME280;36301;48.310;12.786;2023-01-01T15:34:30;96896.22;;;8.13;100.00
50384;BME280;36301;48.310;12.786;2023-01-01T15:37:08;96895.38;;;8.00;100.00
50384;BME280;36301;48.310;12.786;2023-01-01T15:39:51;96898.41;;;7.78;100.00
50384;BME280;36301;48.310;12.786;2023-01-01T15:42:44;96897.91;;;7.64;100.00
50384;BME280;36301;48.310;12.786;2023-01-01T15:47:52;96894.38;;;7.39;100.00
50384;BME280;36301;48.310;12.786;2023-01-01T15:50:25;96900.03;;;7.28;100.00
50384;BME280;36301;48.310;12.786;2023-01-01T15:52:55;96906.25;;;7.24;100.00
50384;BME280;36301;48.310;12.786;2023-01-01T15:55:26;96902.59;;;7.16;100.00
50384;BME280;36301;48.310;12.786;2023-01-01T15:57:53;96893.00;;;7.12;100.00
50384;BME280;36301;48.310;12.786;2023-01-01T16:00:25;96903.72;;;7.07;100.00
50384;BME280;36301;48.310;12.786;2023-01-01T16:02:56;96899.16;;;6.95;100.00
50384;BME280;36301;48.310;12.786;2023-01-01T16:05:26;96899.66;;;6.88;100.00
50384;BME280;36301;48.310;12.786;2023-01-01T16:08:03;96904.81;;;6.76;100.00
50384;BME280;36301;48.310;12.786;2023-01-01T16:10:30;96904.34;;;6.74;100.00
50384;BME280;36301;48.310;12.786;2023-01-01T16:12:57;96897.94;;;6.92;100.00
50384;BME280;36301;48.310;12.786;2023-01-01T16:15:24;96902.59;;;6.87;100.00
50384;BME280;36301;48.310;12.786;2023-01-01T16:17:51;96897.38;;;6.78;100.00
50384;BME280;36301;48.310;12.786;2023-01-01T16:20:19;96900.25;;;6.64;100.00
50384;BME280;36301;48.310;12.786;2023-01-01T16:22:46;96900.41;;;6.59;100.00
50384;BME280;36301;48.310;12.786;2023-01-01T16:25:18;96895.00;;;6.56;100.00
50384;BME280;36301;48.310;12.786;2023-01-01T16:27:46;96899.50;;;6.55;100.00
50384;BME280;36301;48.310;12.786;2023-01-01T16:30:13;96899.94;;;6.57;100.00
50384;BME280;36301;48.310;12.786;2023-01-01T16:32:40;96882.25;;;6.75;100.00
50384;BME280;36301;48.310;12.786;2023-01-01T16:35:12;96899.28;;;6.69;100.00
50384;BME280;36301;48.310;12.786;2023-01-01T16:37:38;96894.88;;;6.52;100.00
50384;BME280;36301;48.310;12.786;2023-01-01T16:40:06;96891.50;;;6.43;100.00
50384;BME280;36301;48.310;12.786;2023-01-01T16:42:33;96898.50;;;6.39;100.00
50384;BME280;36301;48.310;12.786;2023-01-01T16:44:59;96894.19;;;6.26;100.00
50384;BME280;36301;48.310;12.786;2023-01-01T16:47:26;96891.44;;;6.13;100.00
50384;BME280;36301;48.310;12.786;2023-01-01T16:49:53;96896.72;;;6.05;100.00
50384;BME280;36301;48.310;12.786;2023-01-01T16:52:19;96888.84;;;5.96;100.00
50384;BME280;36301;48.310;12.786;2023-01-01T16:54:46;96895.31;;;5.90;100.00
50384;BME280;36301;48.310;12.786;2023-01-01T16:57:13;96892.22;;;5.88;100.00
50384;BME280;36301;48.310;12.786;2023-01-01T16:59:39;96893.78;;;5.80;100.00
50384;BME280;36301;48.310;12.786;2023-01-01T17:02:08;96885.75;;;5.77;100.00
50384;BME280;36301;48.310;12.786;2023-01-01T17:04:36;96878.19;;;5.66;100.00
50384;BME280;36301;48.310;12.786;2023-01-01T17:07:02;96886.06;;;5.66;100.00
50384;BME280;36301;48.310;12.786;2023-01-01T17:09:28;96885.78;;;5.59;100.00
50384;BME280;36301;48.310;12.786;2023-01-01T17:11:55;96884.22;;;5.58;100.00
50384;BME280;36301;48.310;12.786;2023-01-01T17:14:21;96890.56;;;5.49;100.00
50384;BME280;36301;48.310;12.786;2023-01-01T17:16:48;96891.19;;;5.54;100.00
50384;BME280;36301;48.310;12.786;2023-01-01T17:19:17;96885.78;;;5.51;100.00
50384;BME280;36301;48.310;12.786;2023-01-01T17:21:44;96874.66;;;5.45;100.00
50384;BME280;36301;48.310;12.786;2023-01-01T17:24:12;96884.22;;;5.41;100.00
50384;BME280;36301;48.310;12.786;2023-01-01T17:26:39;96886.22;;;5.35;100.00
50384;BME280;36301;48.310;12.786;2023-01-01T17:29:06;96872.47;;;5.30;100.00
50384;BME280;36301;48.310;12.786;2023-01-01T17:31:33;96874.94;;;5.26;100.00
50384;BME280;36301;48.310;12.786;2023-01-01T17:34:00;96858.41;;;5.17;100.00
50384;BME280;36301;48.310;12.786;2023-01-01T17:36:26;96870.75;;;5.16;100.00
50384;BME280;36301;48.310;12.786;2023-01-01T17:38:53;96873.53;;;5.11;100.00
50384;BME280;36301;48.310;12.786;2023-01-01T17:41:19;96869.06;;;5.03;100.00
50384;BME280;36301;48.310;12.786;2023-01-01T17:43:48;96877.41;;;5.05;100.00
50384;BME280;36301;48.310;12.786;2023-01-01T17:46:33;96865.81;;;4.98;100.00
50384;BME280;36301;48.310;12.786;2023-01-01T17:49:01;96867.38;;;4.99;100.00
50384;BME280;36301;48.310;12.786;2023-01-01T17:51:28;96856.69;;;4.95;100.00
50384;BME280;36301;48.310;12.786;2023-01-01T17:53:55;96858.09;;;5.10;100.00
50384;BME280;36301;48.310;12.786;2023-01-01T17:56:22;96863.47;;;4.96;100.00
50384;BME280;36301;48.310;12.786;2023-01-01T17:58:50;96852.06;;;4.83;100.00
50384;BME280;36301;48.310;12.786;2023-01-01T18:03:48;96855.00;;;4.82;100.00
50384;BME280;36301;48.310;12.786;2023-01-01T18:06:15;96852.97;;;4.79;100.00
50384;BME280;36301;48.310;12.786;2023-01-01T18:08:41;96845.69;;;4.76;100.00
50384;BME280;36301;48.310;12.786;2023-01-01T18:11:11;96857.59;;;4.73;100.00
50384;BME280;36301;48.310;12.786;2023-01-01T18:13:39;96853.72;;;4.71;100.00
50384;BME280;36301;48.310;12.786;2023-01-01T18:16:07;96850.63;;;4.68;100.00
50384;BME280;36301;48.310;12.786;2023-01-01T18:18:35;96844.75;;;4.63;100.00
50384;BME280;36301;48.310;12.786;2023-01-01T18:21:09;96844.28;;;4.61;100.00
50384;BME280;36301;48.310;12.786;2023-01-01T18:23:37;96844.72;;;4.54;100.00
50384;BME280;36301;48.310;12.786;2023-01-01T18:26:08;96848.88;;;4.55;100.00
50384;BME280;36301;48.310;12.786;2023-01-01T18:28:35;96850.13;;;4.49;100.00